Startpagina
METAR-TAF:

METAR-TAF

Vliegvelden :

Calgary International Airport

Calgary, Alberta, Canada

breedte: 51-07N, lengte: 114-01W, hoogte: 1077 m

Actueel weer

Dit bericht is 17 minuten geleden gemaakt, om 06:00 UTC
Wind 7 kt uit het zuiden
Temperatuur 13°C
Vochtigheid 62%
Druk 1022 hPa
Zicht: 24.1 km
Verspreide wolken op 8100 ft
Verspreide wolken op 23000 ft

METAR: CYYC 190600Z 18007KT 15SM SCT081 SCT230 13/06 A3019 RMK AC3CI1 CI TR SLP228 DENSITY ALT 3900FT

Tijdstip: 00:17 (06:17 UTC)

Verwachting

Dit bericht is 39 minuten geleden gemaakt, om 05:38 UTC
Verwachting geldig van 19 om 06 UTC tot 20 om 06 UTC
Wind 5 kt uit het zuidzuidwesten
Zicht: 10 km
Weinig wolken op 8000 ft
Verspreide wolken op 24000 ft
Wijzigt naar
van 19 om 15 UTC tot 19 om 17 UTC
Wind 12 kt uit het zuiden

TAF: CYYC 190538Z 1906/2006 20005KT P6SM FEW080 SCT240 BECMG 1915/1917 17012KT RMK NXT FCST BY 190900Z

Waarnemingen en weersverwachtingen van meer dan 4000 vliegvelden (METAR en TAF).

De beschikbare stations zijn de gele en rode punten op de kaart.

Ga met uw muis naar het station om de naam te zien.

Klik dan om waarnemingen en weersverwachtingen te zien.

kaart wijzigen: klik op de groene knoppen met een zwart kruis om in te zoomen, op de groene knop met een streepje om uit te zoomen of op de groene pijlen voor aangrenzende kaarten.


METAR-TAF: